createdAt,value
2018-01-02T01:38:31.062Z,1000.48
2018-01-02T01:38:31.625Z,1000.44
2018-01-02T01:38:32.224Z,1000.45
2018-01-02T01:38:32.822Z,1000.43
2018-01-02T01:38:33.422Z,1000.48
2018-01-02T01:38:34.025Z,1000.48
2018-01-02T01:38:34.623Z,1000.47
2018-01-02T01:38:35.226Z,1000.48
2018-01-02T01:39:28.683Z,1000.45
2018-01-02T01:39:29.277Z,1000.46
2018-01-02T01:39:29.878Z,1000.47
2018-01-02T01:39:30.477Z,1000.50
2018-01-02T01:39:31.084Z,1000.50
2018-01-02T01:39:31.676Z,1000.46
2018-01-02T01:39:32.279Z,1000.44
2018-01-02T01:39:32.873Z,1000.47
2018-01-02T01:40:27.358Z,1000.51
2018-01-02T01:40:27.952Z,1000.50
2018-01-02T01:40:28.552Z,1000.46
2018-01-02T01:40:29.152Z,1000.48
2018-01-02T01:40:29.751Z,1000.52
2018-01-02T01:40:30.353Z,1000.47
2018-01-02T01:40:30.950Z,1000.51
2018-01-02T01:40:31.552Z,1000.50
2018-01-02T01:41:26.034Z,1000.51
2018-01-02T01:41:26.630Z,1000.51
2018-01-02T01:41:27.230Z,1000.51
2018-01-02T01:41:27.827Z,1000.51
2018-01-02T01:41:28.427Z,1000.54
2018-01-02T01:41:29.030Z,1000.52
2018-01-02T01:41:29.627Z,1000.53
2018-01-02T01:41:30.228Z,1000.51
2018-01-02T01:42:23.686Z,1000.48
2018-01-02T01:42:24.283Z,1000.51
2018-01-02T01:42:24.882Z,1000.52
2018-01-02T01:42:25.482Z,1000.49
2018-01-02T01:42:26.084Z,1000.51
2018-01-02T01:42:26.692Z,1000.53
2018-01-02T01:42:27.284Z,1000.53
2018-01-02T01:42:27.882Z,1000.53
2018-01-02T01:43:22.363Z,1000.56
2018-01-02T01:43:22.958Z,1000.53
2018-01-02T01:43:23.557Z,1000.55
2018-01-02T01:43:24.157Z,1000.47
2018-01-02T01:43:24.756Z,1000.54
2018-01-02T01:43:25.357Z,1000.53
2018-01-02T01:43:25.956Z,1000.54
2018-01-02T01:43:26.556Z,1000.55
2018-01-02T01:44:21.071Z,1000.57
2018-01-02T01:44:21.633Z,1000.58
2018-01-02T01:44:22.233Z,1000.59
2018-01-02T01:44:22.839Z,1000.55
2018-01-02T01:44:23.434Z,1000.57
2018-01-02T01:44:24.033Z,1000.59
2018-01-02T01:44:24.632Z,1000.57
2018-01-02T01:44:25.233Z,1000.54
2018-01-02T01:45:19.714Z,1000.59
2018-01-02T01:45:20.310Z,1000.58
2018-01-02T01:45:20.909Z,1000.55
2018-01-02T01:45:21.508Z,1000.57
2018-01-02T01:45:22.108Z,1000.60
2018-01-02T01:45:22.709Z,1000.60
2018-01-02T01:45:23.308Z,1000.62
2018-01-02T01:45:23.907Z,1000.59
2018-01-02T01:46:17.366Z,1000.62
2018-01-02T01:46:17.962Z,1000.60
2018-01-02T01:46:18.561Z,1000.63
2018-01-02T01:46:19.161Z,1000.58
2018-01-02T01:46:19.764Z,1000.61
2018-01-02T01:46:20.366Z,1000.61
2018-01-02T01:46:20.961Z,1000.59
2018-01-02T01:46:21.561Z,1000.60
2018-01-02T01:47:16.039Z,1000.65
2018-01-02T01:47:16.636Z,1000.67
2018-01-02T01:47:17.237Z,1000.61
2018-01-02T01:47:17.836Z,1000.63
2018-01-02T01:47:18.436Z,1000.64
2018-01-02T01:47:19.036Z,1000.65
2018-01-02T01:47:19.637Z,1000.67
2018-01-02T01:47:20.236Z,1000.64
2018-01-02T01:48:14.718Z,1000.63
2018-01-02T01:48:15.317Z,1000.59
2018-01-02T01:48:15.913Z,1000.64
2018-01-02T01:48:16.512Z,1000.67
2018-01-02T01:48:17.113Z,1000.67
2018-01-02T01:48:17.711Z,1000.69
2018-01-02T01:48:18.312Z,1000.69
2018-01-02T01:48:18.911Z,1000.65
2018-01-02T01:49:13.392Z,1000.70
2018-01-02T01:49:13.988Z,1000.68
2018-01-02T01:49:14.588Z,1000.68
2018-01-02T01:49:15.189Z,1000.68
2018-01-02T01:49:15.788Z,1000.69
2018-01-02T01:49:16.391Z,1000.70
2018-01-02T01:49:16.987Z,1000.70
2018-01-02T01:49:17.588Z,1000.72
2018-01-02T01:50:12.093Z,1000.72
2018-01-02T01:50:12.666Z,1000.69
2018-01-02T01:50:13.264Z,1000.69
2018-01-02T01:50:13.905Z,1000.68
2018-01-02T01:50:14.466Z,1000.69
2018-01-02T01:50:15.064Z,1000.73
2018-01-02T01:50:15.664Z,1000.71
2018-01-02T01:50:16.265Z,1000.73
2018-01-02T01:51:09.724Z,1000.72
2018-01-02T01:51:10.319Z,1000.70
2018-01-02T01:51:10.917Z,1000.73
2018-01-02T01:51:11.516Z,1000.71
2018-01-02T01:51:12.118Z,1000.69
2018-01-02T01:51:12.724Z,1000.68
2018-01-02T01:51:13.316Z,1000.71
2018-01-02T01:51:13.917Z,1000.70
2018-01-02T01:52:08.397Z,1000.70
2018-01-02T01:52:08.992Z,1000.71
2018-01-02T01:52:09.592Z,1000.74
2018-01-02T01:52:10.190Z,1000.75
2018-01-02T01:52:10.793Z,1000.74
2018-01-02T01:52:11.391Z,1000.73
2018-01-02T01:52:11.991Z,1000.72
2018-01-02T01:52:12.591Z,1000.73
2018-01-02T01:53:06.051Z,1000.67
2018-01-02T01:53:06.645Z,1000.71
2018-01-02T01:53:07.244Z,1000.71
2018-01-02T01:53:07.845Z,1000.71
2018-01-02T01:53:08.444Z,1000.71
2018-01-02T01:53:09.044Z,1000.72
2018-01-02T01:53:09.644Z,1000.70
2018-01-02T01:53:10.242Z,1000.73
2018-01-02T01:54:04.723Z,1000.71
2018-01-02T01:54:05.320Z,1000.73
2018-01-02T01:54:05.924Z,1000.69
2018-01-02T01:54:06.520Z,1000.74
2018-01-02T01:54:07.119Z,1000.73
2018-01-02T01:54:07.718Z,1000.69
2018-01-02T01:54:08.318Z,1000.70
2018-01-02T01:54:08.919Z,1000.73
2018-01-02T01:55:02.407Z,1000.76
2018-01-02T01:55:02.974Z,1000.71
2018-01-02T01:55:03.573Z,1000.72
2018-01-02T01:55:04.172Z,1000.73
2018-01-02T01:55:04.771Z,1000.75
2018-01-02T01:55:05.373Z,1000.73
2018-01-02T01:55:05.973Z,1000.73
2018-01-02T01:55:06.571Z,1000.75
2018-01-02T01:56:00.029Z,1000.77
2018-01-02T01:56:00.624Z,1000.76
2018-01-02T01:56:01.224Z,1000.74
2018-01-02T01:56:01.823Z,1000.75
2018-01-02T01:56:02.423Z,1000.77
2018-01-02T01:56:03.024Z,1000.75
2018-01-02T01:56:03.622Z,1000.76
2018-01-02T01:56:04.223Z,1000.74
2018-01-02T01:56:58.706Z,1000.78
2018-01-02T01:56:59.300Z,1000.73
2018-01-02T01:56:59.899Z,1000.75
2018-01-02T01:57:00.499Z,1000.76
2018-01-02T01:57:01.099Z,1000.77
2018-01-02T01:57:01.700Z,1000.79
2018-01-02T01:57:02.298Z,1000.78
2018-01-02T01:57:02.898Z,1000.78
2018-01-02T01:57:57.384Z,1000.75
2018-01-02T01:57:57.975Z,1000.76
2018-01-02T01:57:58.575Z,1000.74
2018-01-02T01:57:59.174Z,1000.77
2018-01-02T01:57:59.776Z,1000.79
2018-01-02T01:58:00.375Z,1000.71
2018-01-02T01:58:00.975Z,1000.74
2018-01-02T01:58:01.573Z,1000.76
2018-01-02T01:59:07.729Z,1000.75
2018-01-02T01:59:08.323Z,1000.76
2018-01-02T01:59:08.923Z,1000.76
2018-01-02T01:59:09.522Z,1000.75
2018-01-02T01:59:10.124Z,1000.76
2018-01-02T01:59:10.724Z,1000.78
2018-01-02T01:59:11.323Z,1000.75
2018-01-02T01:59:11.922Z,1000.73
2018-01-02T02:00:05.414Z,1000.76
2018-01-02T02:00:05.977Z,1000.76
2018-01-02T02:00:06.577Z,1000.78
2018-01-02T02:00:07.175Z,1000.79
2018-01-02T02:00:07.775Z,1000.76
2018-01-02T02:00:08.378Z,1000.76
2018-01-02T02:00:08.974Z,1000.75
2018-01-02T02:00:09.576Z,1000.75
2018-01-02T02:01:03.032Z,1000.78
2018-01-02T02:01:03.628Z,1000.77
2018-01-02T02:01:04.229Z,1000.79
2018-01-02T02:01:04.831Z,1000.75
2018-01-02T02:01:05.427Z,1000.77
2018-01-02T02:01:06.028Z,1000.79
2018-01-02T02:01:06.627Z,1000.79
2018-01-02T02:01:07.227Z,1000.78
2018-01-02T02:02:01.710Z,1000.75
2018-01-02T02:02:02.306Z,1000.81
2018-01-02T02:02:02.902Z,1000.81
2018-01-02T02:02:03.503Z,1000.78
2018-01-02T02:02:04.103Z,1000.79
2018-01-02T02:02:04.704Z,1000.81
2018-01-02T02:02:05.302Z,1000.79
2018-01-02T02:02:05.904Z,1000.77
2018-01-02T02:03:00.381Z,1000.78
2018-01-02T02:03:00.990Z,1000.76
2018-01-02T02:03:01.580Z,1000.82
2018-01-02T02:03:02.180Z,1000.79
2018-01-02T02:03:02.778Z,1000.81
2018-01-02T02:03:03.378Z,1000.81
2018-01-02T02:03:03.976Z,1000.78
2018-01-02T02:03:04.578Z,1000.78
2018-01-02T02:03:59.060Z,1000.78
2018-01-02T02:03:59.655Z,1000.79
2018-01-02T02:04:00.255Z,1000.75
2018-01-02T02:04:00.854Z,1000.77
2018-01-02T02:04:01.457Z,1000.78
2018-01-02T02:04:02.055Z,1000.72
2018-01-02T02:04:02.653Z,1000.73
2018-01-02T02:04:03.253Z,1000.77
2018-01-02T02:04:56.731Z,1000.82
2018-01-02T02:04:57.308Z,1000.81
2018-01-02T02:04:57.909Z,1000.81
2018-01-02T02:04:58.510Z,1000.81
2018-01-02T02:04:59.105Z,1000.79
2018-01-02T02:04:59.706Z,1000.77
2018-01-02T02:05:00.306Z,1000.80
2018-01-02T02:05:00.905Z,1000.78
2018-01-02T02:05:55.411Z,1000.77
2018-01-02T02:05:55.982Z,1000.77
2018-01-02T02:05:56.582Z,1000.76
2018-01-02T02:05:57.187Z,1000.80
2018-01-02T02:05:57.796Z,1000.81
2018-01-02T02:05:58.382Z,1000.78
2018-01-02T02:05:58.981Z,1000.76
2018-01-02T02:05:59.581Z,1000.78
2018-01-02T02:06:53.038Z,1000.83
2018-01-02T02:06:53.636Z,1000.84
2018-01-02T02:06:54.232Z,1000.82
2018-01-02T02:06:54.833Z,1000.82
2018-01-02T02:06:55.435Z,1000.83
2018-01-02T02:06:56.033Z,1000.82
2018-01-02T02:06:56.635Z,1000.83
2018-01-02T02:06:57.232Z,1000.82
2018-01-02T02:07:51.712Z,1000.80
2018-01-02T02:07:52.310Z,1000.82
2018-01-02T02:07:52.909Z,1000.85
2018-01-02T02:07:53.508Z,1000.83
2018-01-02T02:07:54.111Z,1000.82
2018-01-02T02:07:54.709Z,1000.83
2018-01-02T02:07:55.309Z,1000.85
2018-01-02T02:07:55.907Z,1000.81
2018-01-02T02:08:49.364Z,1000.80
2018-01-02T02:08:49.962Z,1000.80
2018-01-02T02:08:50.566Z,1000.82
2018-01-02T02:08:51.170Z,1000.85
2018-01-02T02:08:51.761Z,1000.82
2018-01-02T02:08:52.361Z,1000.81
2018-01-02T02:08:52.975Z,1000.82
2018-01-02T02:08:53.561Z,1000.84
2018-01-02T02:09:48.040Z,1000.83
2018-01-02T02:09:48.637Z,1000.87
2018-01-02T02:09:49.236Z,1000.83
2018-01-02T02:09:49.837Z,1000.81
2018-01-02T02:09:50.435Z,1000.79
2018-01-02T02:09:51.037Z,1000.83
2018-01-02T02:09:51.636Z,1000.81
2018-01-02T02:09:52.236Z,1000.81
2018-01-02T02:10:46.741Z,1000.85
2018-01-02T02:10:47.315Z,1000.83
2018-01-02T02:10:47.912Z,1000.86
2018-01-02T02:10:48.512Z,1000.88
2018-01-02T02:10:49.112Z,1000.89
2018-01-02T02:10:49.714Z,1000.91
2018-01-02T02:10:50.310Z,1000.89
2018-01-02T02:10:50.910Z,1000.89
2018-01-02T02:11:44.367Z,1000.88
2018-01-02T02:11:44.965Z,1000.82
2018-01-02T02:11:45.576Z,1000.86
2018-01-02T02:11:46.168Z,1000.87
2018-01-02T02:11:46.764Z,1000.86
2018-01-02T02:11:47.366Z,1000.88
2018-01-02T02:11:47.965Z,1000.87
2018-01-02T02:11:48.563Z,1000.87
2018-01-02T02:12:43.042Z,1000.87
2018-01-02T02:12:43.638Z,1000.85
2018-01-02T02:12:44.239Z,1000.86
2018-01-02T02:12:44.839Z,1000.86
2018-01-02T02:12:45.439Z,1000.90
2018-01-02T02:12:46.038Z,1000.88
2018-01-02T02:12:46.641Z,1000.87
2018-01-02T02:12:47.239Z,1000.83
2018-01-02T02:13:41.719Z,1000.88
2018-01-02T02:13:42.315Z,1000.85
2018-01-02T02:13:42.915Z,1000.87
2018-01-02T02:13:43.514Z,1000.89
2018-01-02T02:13:44.115Z,1000.85
2018-01-02T02:13:44.716Z,1000.88
2018-01-02T02:13:45.369Z,1000.81
2018-01-02T02:13:45.915Z,1000.89
2018-01-02T02:14:40.395Z,1000.87
2018-01-02T02:14:40.992Z,1000.88
2018-01-02T02:14:41.591Z,1000.88
2018-01-02T02:14:42.190Z,1000.87
2018-01-02T02:14:42.789Z,1000.86
2018-01-02T02:14:43.394Z,1000.85
2018-01-02T02:14:43.990Z,1000.92
2018-01-02T02:14:44.590Z,1000.86
2018-01-02T02:15:39.102Z,1000.84
2018-01-02T02:15:39.667Z,1000.85
2018-01-02T02:15:40.271Z,1000.89
2018-01-02T02:15:40.867Z,1000.89
2018-01-02T02:15:41.469Z,1000.89
2018-01-02T02:15:42.068Z,1000.87
2018-01-02T02:15:42.664Z,1000.89
2018-01-02T02:15:43.266Z,1000.87
2018-01-02T02:16:38.256Z,1000.89
2018-01-02T02:16:38.854Z,1000.91
2018-01-02T02:16:39.454Z,1000.91
2018-01-02T02:16:40.058Z,1000.91
2018-01-02T02:16:40.654Z,1000.92
2018-01-02T02:16:41.254Z,1000.88
2018-01-02T02:16:41.854Z,1000.88
2018-01-02T02:17:36.318Z,1000.91
2018-01-02T02:17:36.916Z,1000.91
2018-01-02T02:17:37.514Z,1000.93
2018-01-02T02:17:38.114Z,1000.89
2018-01-02T02:17:38.719Z,1000.89
2018-01-02T02:17:39.316Z,1000.90
2018-01-02T02:17:39.914Z,1000.89
2018-01-02T02:17:40.513Z,1000.87
2018-01-02T02:18:33.971Z,1000.87
2018-01-02T02:18:34.568Z,1000.88
2018-01-02T02:18:35.168Z,1000.88
2018-01-02T02:18:35.772Z,1000.91
2018-01-02T02:18:36.367Z,1000.89
2018-01-02T02:18:36.966Z,1000.90
2018-01-02T02:18:37.568Z,1000.92
2018-01-02T02:18:38.167Z,1000.86
2018-01-02T02:19:31.623Z,1000.94
2018-01-02T02:19:32.220Z,1000.93
2018-01-02T02:19:32.820Z,1000.94
2018-01-02T02:19:33.421Z,1000.94
2018-01-02T02:19:34.019Z,1000.87
2018-01-02T02:19:34.620Z,1000.93
2018-01-02T02:19:35.219Z,1000.94
2018-01-02T02:19:35.818Z,1000.94
2018-01-02T02:20:30.298Z,1001.00
2018-01-02T02:20:30.895Z,1001.00
2018-01-02T02:20:31.494Z,1000.98
2018-01-02T02:20:32.129Z,1000.96
2018-01-02T02:20:32.692Z,1001.00
2018-01-02T02:20:33.294Z,1001.01
2018-01-02T02:20:33.893Z,1000.98
2018-01-02T02:20:34.492Z,1000.97
2018-01-02T02:21:29.007Z,1000.99
2018-01-02T02:21:29.569Z,1001.02
2018-01-02T02:21:30.169Z,1000.96
2018-01-02T02:21:30.771Z,1001.01
2018-01-02T02:21:31.369Z,1000.95
2018-01-02T02:21:31.970Z,1001.00
2018-01-02T02:21:32.569Z,1000.98
2018-01-02T02:21:33.173Z,1001.00
2018-01-02T02:22:26.626Z,1001.00
2018-01-02T02:22:27.221Z,1001.02
2018-01-02T02:22:27.822Z,1001.00
2018-01-02T02:22:28.425Z,1000.99
2018-01-02T02:22:29.022Z,1000.98
2018-01-02T02:22:29.622Z,1001.01
2018-01-02T02:22:30.229Z,1001.00
2018-01-02T02:22:30.825Z,1001.03
2018-01-02T02:23:25.300Z,1001.00
2018-01-02T02:23:25.900Z,1001.03
2018-01-02T02:23:26.497Z,1000.99
2018-01-02T02:23:27.101Z,1001.03
2018-01-02T02:23:27.697Z,1001.02
2018-01-02T02:23:28.297Z,1001.01
2018-01-02T02:23:28.896Z,1001.01
2018-01-02T02:23:29.496Z,1001.01
2018-01-02T02:24:22.953Z,1000.97
2018-01-02T02:24:23.552Z,1000.97
2018-01-02T02:24:24.150Z,1000.93
2018-01-02T02:24:24.752Z,1000.95
2018-01-02T02:24:25.352Z,1000.95
2018-01-02T02:24:25.948Z,1000.96
2018-01-02T02:24:26.548Z,1000.98
2018-01-02T02:24:27.147Z,1000.99
2018-01-02T02:25:20.610Z,1000.98
2018-01-02T02:25:21.202Z,1000.97
2018-01-02T02:25:21.812Z,1000.99
2018-01-02T02:25:22.407Z,1000.96
2018-01-02T02:25:23.001Z,1001.01
2018-01-02T02:25:23.601Z,1000.99
2018-01-02T02:25:24.201Z,1000.97
2018-01-02T02:25:24.808Z,1001.02
2018-01-02T02:26:18.254Z,1000.98
2018-01-02T02:26:18.853Z,1001.02
2018-01-02T02:26:19.456Z,1001.00
2018-01-02T02:26:20.055Z,1000.99
2018-01-02T02:26:20.652Z,1000.98
2018-01-02T02:26:21.259Z,1001.02
2018-01-02T02:26:21.853Z,1001.03
2018-01-02T02:26:22.450Z,1001.01
2018-01-02T02:27:16.965Z,1001.03
2018-01-02T02:27:17.528Z,1001.02
2018-01-02T02:27:18.127Z,1001.02
2018-01-02T02:27:18.730Z,1001.03
2018-01-02T02:27:19.331Z,1001.01
2018-01-02T02:27:19.929Z,1000.98
2018-01-02T02:27:20.528Z,1001.01
2018-01-02T02:27:21.127Z,1001.04
2018-01-02T02:28:15.609Z,1001.00
2018-01-02T02:28:16.205Z,1001.01
2018-01-02T02:28:16.812Z,1000.99
2018-01-02T02:28:17.410Z,1001.01
2018-01-02T02:28:18.003Z,1001.03
2018-01-02T02:28:18.604Z,1001.04
2018-01-02T02:28:19.203Z,1000.98
2018-01-02T02:28:19.803Z,1000.98
2018-01-02T02:29:13.261Z,1000.99
2018-01-02T02:29:13.856Z,1001.01
2018-01-02T02:29:14.455Z,1001.01
2018-01-02T02:29:15.060Z,1001.02
2018-01-02T02:29:15.656Z,1000.96
2018-01-02T02:29:16.255Z,1001.02
2018-01-02T02:29:16.856Z,1001.00
2018-01-02T02:29:17.455Z,1001.01
2018-01-02T02:30:10.912Z,1001.02
2018-01-02T02:30:11.508Z,1001.00
2018-01-02T02:30:12.108Z,1001.01
2018-01-02T02:30:12.709Z,1001.00
2018-01-02T02:30:13.325Z,1001.01
2018-01-02T02:30:13.908Z,1000.99
2018-01-02T02:30:14.508Z,1000.99
2018-01-02T02:30:15.106Z,1001.02
2018-01-02T02:31:08.563Z,1001.02
2018-01-02T02:31:09.162Z,1001.03
2018-01-02T02:31:09.761Z,1001.00
2018-01-02T02:31:10.360Z,1001.01
2018-01-02T02:31:10.959Z,1001.01
2018-01-02T02:31:11.560Z,1001.03
2018-01-02T02:31:12.159Z,1001.01
2018-01-02T02:31:12.758Z,1001.00
2018-01-02T02:32:06.216Z,1001.00
2018-01-02T02:32:06.812Z,1001.00
2018-01-02T02:32:07.411Z,1000.99
2018-01-02T02:32:08.021Z,1000.96
2018-01-02T02:32:08.611Z,1001.00
2018-01-02T02:32:09.214Z,1000.99
2018-01-02T02:32:09.808Z,1000.99
2018-01-02T02:32:10.409Z,1001.03
2018-01-02T02:33:04.928Z,1001.02
2018-01-02T02:33:05.485Z,1001.02
2018-01-02T02:33:06.084Z,1001.02
2018-01-02T02:33:06.689Z,1001.01
2018-01-02T02:33:07.285Z,1001.02
2018-01-02T02:33:07.884Z,1001.02
2018-01-02T02:33:08.484Z,1001.02
2018-01-02T02:33:09.085Z,1001.03
2018-01-02T02:34:02.542Z,1001.04
2018-01-02T02:34:03.140Z,1001.05
2018-01-02T02:34:03.739Z,1001.00
2018-01-02T02:34:04.340Z,1001.02
2018-01-02T02:34:04.937Z,1001.07
2018-01-02T02:34:05.537Z,1001.04
2018-01-02T02:34:06.136Z,1001.02
2018-01-02T02:34:06.738Z,1001.02
2018-01-02T02:52:18.873Z,1001.22
2018-01-02T02:52:19.436Z,1001.22
2018-01-02T02:52:20.037Z,1001.18
2018-01-02T02:52:20.637Z,1001.25
2018-01-02T02:52:21.236Z,1001.19
2018-01-02T02:52:21.836Z,1001.24
2018-01-02T02:52:22.435Z,1001.24
2018-01-02T02:52:23.038Z,1001.23
2018-01-02T02:53:16.597Z,1001.22
2018-01-02T02:53:17.192Z,1001.23
2018-01-02T02:53:17.801Z,1001.24
2018-01-02T02:53:18.389Z,1001.26
2018-01-02T02:53:18.988Z,1001.21
2018-01-02T02:53:19.590Z,1001.24
2018-01-02T02:53:20.190Z,1001.25
2018-01-02T02:53:20.790Z,1001.25
2018-01-02T02:54:15.273Z,1001.23
2018-01-02T02:54:15.867Z,1001.25
2018-01-02T02:54:16.465Z,1001.26
2018-01-02T02:54:17.065Z,1001.23
2018-01-02T02:54:17.669Z,1001.29
2018-01-02T02:54:18.265Z,1001.25
2018-01-02T02:54:18.869Z,1001.24
2018-01-02T02:54:19.467Z,1001.25
2018-01-02T02:55:12.924Z,1001.25
2018-01-02T02:55:13.520Z,1001.27
2018-01-02T02:55:14.119Z,1001.27
2018-01-02T02:55:14.720Z,1001.29
2018-01-02T02:55:15.330Z,1001.28
2018-01-02T02:55:15.917Z,1001.31
2018-01-02T02:55:16.516Z,1001.26
2018-01-02T02:55:17.119Z,1001.29
2018-01-02T02:56:11.086Z,1001.30
2018-01-02T02:56:11.687Z,1001.29
2018-01-02T02:56:12.282Z,1001.31
2018-01-02T02:56:12.882Z,1001.27
2018-01-02T02:56:13.482Z,1001.32
2018-01-02T02:56:14.083Z,1001.30
2018-01-02T02:56:14.681Z,1001.30
2018-01-02T02:57:08.125Z,1001.31
2018-01-02T02:57:08.722Z,1001.26
2018-01-02T02:57:09.322Z,1001.30
2018-01-02T02:57:09.925Z,1001.31
2018-01-02T02:57:10.522Z,1001.32
2018-01-02T02:57:11.121Z,1001.27
2018-01-02T02:57:11.719Z,1001.28
2018-01-02T02:57:12.320Z,1001.27
2018-01-02T02:58:05.811Z,1001.32
2018-01-02T02:58:06.372Z,1001.34
2018-01-02T02:58:06.972Z,1001.30
2018-01-02T02:58:07.572Z,1001.33
2018-01-02T02:58:08.172Z,1001.32
2018-01-02T02:58:08.771Z,1001.36
2018-01-02T02:58:09.375Z,1001.34
2018-01-02T02:58:09.972Z,1001.32
2018-01-02T02:59:04.450Z,1001.36
2018-01-02T02:59:05.048Z,1001.36
2018-01-02T02:59:05.648Z,1001.34
2018-01-02T02:59:06.247Z,1001.35
2018-01-02T02:59:06.849Z,1001.36
2018-01-02T02:59:07.448Z,1001.39
2018-01-02T02:59:08.048Z,1001.36
2018-01-02T02:59:08.647Z,1001.33
2018-01-02T03:00:03.127Z,1001.34
2018-01-02T03:00:03.725Z,1001.34
2018-01-02T03:00:04.354Z,1001.33
2018-01-02T03:00:04.924Z,1001.37
2018-01-02T03:00:05.524Z,1001.35
2018-01-02T03:00:06.125Z,1001.34
2018-01-02T03:00:06.722Z,1001.36
2018-01-02T03:00:07.323Z,1001.36
2018-01-02T03:01:01.803Z,1001.35
2018-01-02T03:01:02.400Z,1001.37
2018-01-02T03:01:03.001Z,1001.39
2018-01-02T03:01:03.608Z,1001.38
2018-01-02T03:01:04.199Z,1001.37
2018-01-02T03:01:04.799Z,1001.36
2018-01-02T03:01:05.399Z,1001.37
2018-01-02T03:01:05.999Z,1001.38
2018-01-02T03:01:59.457Z,1001.39
2018-01-02T03:02:00.053Z,1001.34
2018-01-02T03:02:00.653Z,1001.39
2018-01-02T03:02:01.259Z,1001.36
2018-01-02T03:02:01.852Z,1001.39
2018-01-02T03:02:02.451Z,1001.40
2018-01-02T03:02:03.051Z,1001.40
2018-01-02T03:02:03.651Z,1001.40
2018-01-02T03:02:57.105Z,1001.38
2018-01-02T03:02:57.706Z,1001.42
2018-01-02T03:02:58.303Z,1001.41
2018-01-02T03:02:58.915Z,1001.36
2018-01-02T03:02:59.504Z,1001.39
2018-01-02T03:03:00.105Z,1001.39
2018-01-02T03:03:00.702Z,1001.39
2018-01-02T03:03:01.303Z,1001.40
2018-01-02T03:03:55.074Z,1001.41
2018-01-02T03:03:55.579Z,1001.39
2018-01-02T03:03:56.178Z,1001.38
2018-01-02T03:03:56.778Z,1001.38
2018-01-02T03:03:57.379Z,1001.39
2018-01-02T03:03:57.979Z,1001.38
2018-01-02T03:03:58.578Z,1001.37
2018-01-02T03:03:59.179Z,1001.35
2018-01-02T03:04:52.720Z,1001.40
2018-01-02T03:04:53.336Z,1001.37
2018-01-02T03:04:53.916Z,1001.40
2018-01-02T03:04:54.516Z,1001.35
2018-01-02T03:04:55.115Z,1001.33
2018-01-02T03:04:55.716Z,1001.37
2018-01-02T03:04:56.314Z,1001.34
2018-01-02T03:04:56.916Z,1001.35
2018-01-02T03:05:50.461Z,1001.34
2018-01-02T03:05:50.968Z,1001.34
2018-01-02T03:05:51.566Z,1001.36
2018-01-02T03:05:52.171Z,1001.37
2018-01-02T03:05:52.766Z,1001.34
2018-01-02T03:05:53.367Z,1001.36
2018-01-02T03:05:53.965Z,1001.35
2018-01-02T03:05:54.565Z,1001.34
2018-01-02T03:06:48.022Z,1001.31
2018-01-02T03:06:48.619Z,1001.36
2018-01-02T03:06:49.218Z,1001.35
2018-01-02T03:06:49.821Z,1001.35
2018-01-02T03:06:50.418Z,1001.34
2018-01-02T03:06:51.018Z,1001.39
2018-01-02T03:06:51.617Z,1001.37
2018-01-02T03:06:52.219Z,1001.35
2018-01-02T03:07:46.695Z,1001.39
2018-01-02T03:07:47.294Z,1001.40
2018-01-02T03:07:47.894Z,1001.37
2018-01-02T03:07:48.496Z,1001.37
2018-01-02T03:07:49.097Z,1001.40
2018-01-02T03:07:49.694Z,1001.38
2018-01-02T03:07:50.293Z,1001.37
2018-01-02T03:07:50.892Z,1001.39
2018-01-02T03:08:44.350Z,1001.36
2018-01-02T03:08:44.947Z,1001.37
2018-01-02T03:08:45.545Z,1001.39
2018-01-02T03:08:46.148Z,1001.41
2018-01-02T03:08:46.746Z,1001.37
2018-01-02T03:08:47.345Z,1001.39
2018-01-02T03:08:47.944Z,1001.39
2018-01-02T03:08:48.544Z,1001.35
2018-01-02T03:09:42.289Z,1001.38
2018-01-02T03:09:42.795Z,1001.35
2018-01-02T03:09:43.392Z,1001.39
2018-01-02T03:09:43.990Z,1001.42
2018-01-02T03:09:44.591Z,1001.38
2018-01-02T03:09:45.191Z,1001.43
2018-01-02T03:09:45.790Z,1001.42
2018-01-02T03:09:46.393Z,1001.38
2018-01-02T03:10:39.857Z,1001.40
2018-01-02T03:10:40.454Z,1001.37
2018-01-02T03:10:41.054Z,1001.39
2018-01-02T03:10:41.661Z,1001.37
2018-01-02T03:10:42.251Z,1001.35
2018-01-02T03:10:42.851Z,1001.33
2018-01-02T03:10:43.452Z,1001.36
2018-01-02T03:10:44.052Z,1001.34
2018-01-02T03:11:38.533Z,1001.37
2018-01-02T03:11:39.129Z,1001.33
2018-01-02T03:11:39.727Z,1001.36
2018-01-02T03:11:40.333Z,1001.38
2018-01-02T03:11:40.928Z,1001.35
2018-01-02T03:11:41.529Z,1001.37
2018-01-02T03:11:42.128Z,1001.40
2018-01-02T03:11:42.727Z,1001.37
2018-01-02T03:12:37.208Z,1001.37
2018-01-02T03:12:37.810Z,1001.39
2018-01-02T03:12:38.406Z,1001.39
2018-01-02T03:12:39.006Z,1001.37
2018-01-02T03:12:39.604Z,1001.38
2018-01-02T03:12:40.204Z,1001.37
2018-01-02T03:12:40.804Z,1001.38
2018-01-02T03:12:41.404Z,1001.39
2018-01-02T03:13:35.884Z,1001.35
2018-01-02T03:13:36.481Z,1001.41
2018-01-02T03:13:37.081Z,1001.39
2018-01-02T03:13:37.683Z,1001.39
2018-01-02T03:13:38.280Z,1001.35
2018-01-02T03:13:38.880Z,1001.37
2018-01-02T03:13:39.479Z,1001.32
2018-01-02T03:13:40.079Z,1001.37
2018-01-02T03:14:34.558Z,1001.43
2018-01-02T03:14:35.158Z,1001.38
2018-01-02T03:14:35.755Z,1001.41
2018-01-02T03:14:36.357Z,1001.41
2018-01-02T03:14:36.956Z,1001.39
2018-01-02T03:14:37.557Z,1001.41
2018-01-02T03:14:38.157Z,1001.44
2018-01-02T03:14:38.756Z,1001.41
2018-01-02T03:15:32.246Z,1001.41
2018-01-02T03:15:32.809Z,1001.33
2018-01-02T03:15:33.409Z,1001.38
2018-01-02T03:15:34.008Z,1001.37
2018-01-02T03:15:34.608Z,1001.41
2018-01-02T03:15:35.212Z,1001.39
2018-01-02T03:15:35.808Z,1001.44
2018-01-02T03:15:36.407Z,1001.39
2018-01-02T03:16:30.889Z,1001.41
2018-01-02T03:16:31.483Z,1001.40
2018-01-02T03:16:32.083Z,1001.39
2018-01-02T03:16:32.685Z,1001.35
2018-01-02T03:16:33.284Z,1001.40
2018-01-02T03:16:33.883Z,1001.39
2018-01-02T03:16:34.482Z,1001.41
2018-01-02T03:16:35.083Z,1001.41
2018-01-02T03:17:28.538Z,1001.42
2018-01-02T03:17:29.136Z,1001.43
2018-01-02T03:17:29.736Z,1001.44
2018-01-02T03:17:30.338Z,1001.48
2018-01-02T03:17:30.936Z,1001.45
2018-01-02T03:17:31.535Z,1001.45
2018-01-02T03:17:32.136Z,1001.41
2018-01-02T03:17:32.739Z,1001.42
2018-01-02T03:18:27.215Z,1001.46
2018-01-02T03:18:27.811Z,1001.41
2018-01-02T03:18:28.411Z,1001.44
2018-01-02T03:18:29.011Z,1001.47
2018-01-02T03:18:29.610Z,1001.42
2018-01-02T03:18:30.209Z,1001.44
2018-01-02T03:18:30.809Z,1001.44
2018-01-02T03:18:31.410Z,1001.44
2018-01-02T03:19:25.889Z,1001.46
2018-01-02T03:19:26.487Z,1001.48
2018-01-02T03:19:27.086Z,1001.48
2018-01-02T03:19:27.688Z,1001.46
2018-01-02T03:19:28.286Z,1001.48
2018-01-02T03:19:28.884Z,1001.47
2018-01-02T03:19:29.490Z,1001.50
2018-01-02T03:19:30.086Z,1001.47
2018-01-02T03:20:23.542Z,1001.47
2018-01-02T03:20:24.139Z,1001.46
2018-01-02T03:20:24.738Z,1001.47
2018-01-02T03:20:25.341Z,1001.47
2018-01-02T03:20:25.938Z,1001.49
2018-01-02T03:20:26.542Z,1001.54
2018-01-02T03:20:27.138Z,1001.48
2018-01-02T03:20:27.737Z,1001.49
2018-01-02T03:21:22.253Z,1001.49
2018-01-02T03:21:22.831Z,1001.46
2018-01-02T03:21:23.412Z,1001.45
2018-01-02T03:21:24.015Z,1001.44
2018-01-02T03:21:24.614Z,1001.49
2018-01-02T03:21:25.214Z,1001.47
2018-01-02T03:21:25.813Z,1001.47
2018-01-02T03:21:26.413Z,1001.46
2018-01-02T03:22:19.870Z,1001.51
2018-01-02T03:22:20.466Z,1001.54
2018-01-02T03:22:21.066Z,1001.50
2018-01-02T03:22:21.667Z,1001.54
2018-01-02T03:22:22.265Z,1001.51
2018-01-02T03:22:22.866Z,1001.48
2018-01-02T03:22:23.465Z,1001.46
2018-01-02T03:22:24.065Z,1001.51
2018-01-02T03:23:17.623Z,1001.51
2018-01-02T03:23:18.221Z,1001.52
2018-01-02T03:23:18.820Z,1001.52
2018-01-02T03:23:19.419Z,1001.58
2018-01-02T03:23:20.019Z,1001.54
2018-01-02T03:23:20.621Z,1001.55
2018-01-02T03:23:21.220Z,1001.51
2018-01-02T03:23:21.821Z,1001.51